Time;durP1;ratioP1;P1;durP2;ratioP2;P2;SDS_P1;SDS_P2;PMS_P1;PMS_P2;Temp;Humidity;BMP_temperature;BMP_pressure;BME280_temperature;BME280_humidity;BME280_pressure;Samples;Min_cycle;Max_cycle;Signal;HPM_P1;HPM_P2
2021/10/22 00:00:18;;;;;;;5.38;1.08;;;8.10;87.80;;;;;;5012755;28;20096;-71
2021/10/22 00:02:44;;;;;;;5.35;1.20;;;8.10;87.90;;;;;;5011568;28;20072;-71
2021/10/22 00:05:10;;;;;;;15.27;1.80;;;8.10;87.50;;;;;;5009505;28;20034;-71
2021/10/22 00:07:36;;;;;;;7.13;1.58;;;8.00;87.40;;;;;;5012287;28;20592;-71
2021/10/22 00:10:04;;;;;;;7.70;1.50;;;8.10;87.30;;;;;;5013969;28;20136;-71
2021/10/22 00:12:29;;;;;;;5.60;1.10;;;8.10;87.00;;;;;;5008877;28;20038;-71
2021/10/22 00:14:55;;;;;;;8.15;1.75;;;8.10;87.00;;;;;;5012352;28;20029;-71
2021/10/22 00:17:21;;;;;;;12.93;1.67;;;8.10;86.90;;;;;;5008781;28;20104;-71
2021/10/22 00:19:48;;;;;;;9.57;1.52;;;8.00;87.00;;;;;;5012701;28;20496;-71
2021/10/22 00:22:14;;;;;;;10.13;1.50;;;8.00;87.90;;;;;;5007908;28;20042;-71
2021/10/22 00:24:40;;;;;;;7.10;1.33;;;7.90;86.80;;;;;;5013270;28;20877;-71
2021/10/22 00:27:06;;;;;;;10.77;1.20;;;7.90;87.40;;;;;;5009944;28;20030;-71
2021/10/22 00:29:33;;;;;;;8.75;1.58;;;7.90;87.40;;;;;;5012491;28;20060;-71
2021/10/22 00:31:59;;;;;;;7.97;1.40;;;7.90;87.40;;;;;;5011410;28;20033;-71
2021/10/22 00:34:25;;;;;;;7.35;1.35;;;8.00;87.20;;;;;;5009647;28;20034;-71
2021/10/22 00:36:51;;;;;;;7.07;1.40;;;8.00;87.20;;;;;;5010125;28;20766;-71
2021/10/22 00:39:17;;;;;;;9.77;1.40;;;8.00;87.00;;;;;;5012180;28;20076;-71
2021/10/22 00:41:43;;;;;;;17.50;1.65;;;8.00;86.90;;;;;;5011225;28;20038;-71
2021/10/22 00:44:09;;;;;;;10.38;1.98;;;7.90;87.20;;;;;;5010045;28;20033;-71
2021/10/22 00:46:38;;;;;;;9.70;1.30;;;7.90;86.80;;;;;;5012035;28;20034;-71
2021/10/22 00:49:12;;;;;;;12.45;1.73;;;7.90;87.30;;;;;;5009688;28;20060;-71
2021/10/22 00:51:39;;;;;;;9.00;1.52;;;7.90;87.30;;;;;;5009076;28;20033;-71
2021/10/22 00:54:10;;;;;;;13.52;2.22;;;7.90;87.00;;;;;;5010984;28;20037;-71
2021/10/22 00:56:36;;;;;;;9.32;1.40;;;7.90;86.80;;;;;;5009511;28;20037;-71
2021/10/22 00:59:06;;;;;;;7.88;1.58;;;7.90;86.90;;;;;;5011533;28;20029;-71
2021/10/22 01:01:40;;;;;;;8.35;1.27;;;7.90;87.00;;;;;;5009358;28;20065;-71
2021/10/22 01:04:07;;;;;;;7.60;1.13;;;7.90;87.00;;;;;;5010558;28;20048;-71
2021/10/22 01:06:36;;;;;;;9.68;1.50;;;7.90;86.50;;;;;;5009893;28;20034;-71
2021/10/22 01:09:04;;;;;;;10.05;1.60;;;7.90;86.70;;;;;;5008128;28;20652;-71
2021/10/22 01:11:30;;;;;;;16.92;1.83;;;7.90;87.00;;;;;;5011778;28;20040;-71
2021/10/22 01:13:56;;;;;;;9.57;1.50;;;7.90;86.90;;;;;;5008592;28;20040;-71
2021/10/22 01:16:22;;;;;;;11.68;1.52;;;7.90;87.90;;;;;;5012032;28;20029;-71
2021/10/22 01:18:50;;;;;;;8.85;1.42;;;7.90;86.70;;;;;;5008465;28;20037;-71
2021/10/22 01:21:16;;;;;;;5.82;1.20;;;7.90;87.40;;;;;;5009335;28;20065;-71
2021/10/22 01:23:42;;;;;;;7.68;1.40;;;7.90;86.80;;;;;;5009276;28;20550;-71
2021/10/22 01:26:08;;;;;;;13.20;1.60;;;7.90;86.90;;;;;;5010612;28;20041;-71
2021/10/22 01:28:34;;;;;;;11.05;1.50;;;7.90;86.50;;;;;;5009360;28;20094;-71
2021/10/22 01:30:59;;;;;;;9.77;1.35;;;7.80;87.00;;;;;;5011215;28;20068;-71
2021/10/22 01:33:25;;;;;;;8.07;1.85;;;7.80;87.40;;;;;;5007360;28;20030;-71
2021/10/22 01:35:51;;;;;;;12.32;1.70;;;7.80;87.30;;;;;;5009667;28;20034;-71
2021/10/22 01:38:23;;;;;;;9.70;1.10;;;7.80;87.20;;;;;;5007139;28;20034;-71
2021/10/22 01:40:53;;;;;;;10.23;1.42;;;7.90;86.90;;;;;;5008515;28;20232;-71
2021/10/22 01:43:21;;;;;;;11.35;1.63;;;7.80;87.00;;;;;;5011134;28;20030;-71
2021/10/22 01:45:47;;;;;;;6.50;1.65;;;7.90;87.20;;;;;;5008625;28;20037;-71
2021/10/22 01:48:13;;;;;;;11.48;1.60;;;7.90;87.00;;;;;;5010681;28;20038;-71
2021/10/22 01:50:38;;;;;;;6.85;1.70;;;7.90;87.10;;;;;;5011129;28;20037;-71
2021/10/22 01:53:04;;;;;;;9.05;1.98;;;8.00;86.50;;;;;;5011327;28;20033;-71
2021/10/22 01:55:30;;;;;;;6.75;3.15;;;7.90;86.80;;;;;;5007768;28;20623;-71
2021/10/22 01:57:56;;;;;;;13.00;1.45;;;8.00;86.70;;;;;;5008534;28;20052;-71
2021/10/22 02:00:22;;;;;;;11.25;1.98;;;7.90;87.10;;;;;;5009187;28;20033;-71
2021/10/22 02:02:47;;;;;;;10.23;1.67;;;7.80;87.10;;;;;;5008718;28;20037;-71
2021/10/22 02:05:13;;;;;;;12.07;1.90;;;7.80;87.50;;;;;;5008469;28;20132;-71
2021/10/22 02:07:39;;;;;;;8.13;1.70;;;7.80;87.80;;;;;;5007260;28;20456;-71
2021/10/22 02:10:06;;;;;;;18.95;1.85;;;7.80;87.20;;;;;;5010549;28;20137;-70
2021/10/22 02:12:31;;;;;;;13.48;1.80;;;7.80;87.30;;;;;;5010128;28;20045;-70
2021/10/22 02:14:57;;;;;;;7.85;1.65;;;7.80;87.40;;;;;;5006670;28;20033;-71
2021/10/22 02:17:23;;;;;;;9.60;2.70;;;7.80;87.30;;;;;;5017727;28;20042;-71
2021/10/22 02:19:49;;;;;;;13.80;1.77;;;7.80;87.40;;;;;;5014135;28;20041;-71
2021/10/22 02:22:15;;;;;;;5.88;1.98;;;7.80;87.20;;;;;;5008934;28;20168;-71
2021/10/22 02:24:41;;;;;;;7.97;1.25;;;7.80;87.10;;;;;;5010673;28;20183;-71
2021/10/22 02:27:08;;;;;;;7.32;1.70;;;7.80;87.00;;;;;;5005870;28;20526;-71
2021/10/22 02:29:33;;;;;;;9.27;1.60;;;7.90;87.20;;;;;;5008796;28;20113;-71
2021/10/22 02:31:59;;;;;;;12.48;2.33;;;7.90;87.30;;;;;;5008029;28;20033;-71
2021/10/22 02:34:25;;;;;;;13.13;1.75;;;8.00;87.00;;;;;;5007616;28;20044;-71
2021/10/22 02:36:51;;;;;;;9.18;1.70;;;8.00;86.70;;;;;;5007459;28;20026;-71
2021/10/22 02:39:17;;;;;;;16.35;1.77;;;7.90;85.90;;;;;;5007991;28;20029;-71
2021/10/22 02:41:44;;;;;;;8.15;1.88;;;7.80;86.40;;;;;;5006692;28;20432;-71
2021/10/22 02:44:11;;;;;;;12.15;1.42;;;7.80;87.50;;;;;;5007981;28;20727;-71
2021/10/22 02:46:37;;;;;;;8.10;1.40;;;7.80;87.60;;;;;;5008335;28;20052;-71
2021/10/22 02:49:03;;;;;;;4.88;1.25;;;7.90;87.60;;;;;;5007735;28;20784;-71
2021/10/22 02:51:29;;;;;;;13.55;1.85;;;8.00;87.40;;;;;;5011643;28;20140;-71
2021/10/22 02:53:55;;;;;;;11.65;1.95;;;8.00;87.00;;;;;;5007773;28;20110;-71
2021/10/22 02:56:21;;;;;;;6.65;1.50;;;8.10;86.50;;;;;;5010863;28;20030;-71
2021/10/22 02:58:48;;;;;;;6.72;1.05;;;8.00;86.20;;;;;;5009771;28;20029;-71
2021/10/22 03:01:13;;;;;;;9.88;1.33;;;8.10;86.00;;;;;;5010503;28;20030;-71
2021/10/22 03:03:39;;;;;;;9.48;2.00;;;7.90;86.40;;;;;;5008592;28;20030;-71
2021/10/22 03:06:05;;;;;;;6.68;1.02;;;8.00;86.60;;;;;;5012835;28;20033;-71
2021/10/22 03:08:30;;;;;;;8.35;1.70;;;8.00;86.50;;;;;;5008188;28;20041;-71
2021/10/22 03:10:56;;;;;;;8.50;1.70;;;8.00;86.40;;;;;;5006782;28;20049;-71
2021/10/22 03:13:22;;;;;;;6.30;1.45;;;8.10;86.30;;;;;;5010049;28;20862;-71
2021/10/22 03:15:48;;;;;;;5.88;1.48;;;8.10;86.40;;;;;;5008754;28;20033;-71
2021/10/22 03:18:14;;;;;;;9.23;1.45;;;8.20;86.00;;;;;;5010846;28;20232;-71
2021/10/22 03:20:40;;;;;;;8.23;1.20;;;8.10;85.50;;;;;;5009678;28;20037;-71
2021/10/22 03:23:06;;;;;;;7.63;1.42;;;8.10;85.70;;;;;;5007405;28;20032;-71
2021/10/22 03:25:32;;;;;;;9.25;1.42;;;8.10;85.90;;;;;;5007396;28;20037;-71
2021/10/22 03:28:04;;;;;;;7.55;1.33;;;8.10;85.90;;;;;;5008737;28;20087;-71
2021/10/22 03:30:37;;;;;;;12.18;1.55;;;8.10;85.60;;;;;;5014481;28;20094;-71
2021/10/22 03:33:04;;;;;;;4.80;0.98;;;8.20;85.80;;;;;;5010267;28;20038;-70
2021/10/22 03:35:30;;;;;;;12.55;1.65;;;8.10;85.50;;;;;;5006714;28;20137;-71
2021/10/22 03:37:56;;;;;;;6.90;1.88;;;8.10;85.30;;;;;;5009430;28;20114;-70
2021/10/22 03:40:23;;;;;;;8.45;1.75;;;8.10;85.80;;;;;;5006081;28;20057;-71
2021/10/22 03:42:55;;;;;;;9.73;1.10;;;8.00;86.10;;;;;;5007585;28;20064;-71
2021/10/22 03:45:21;;;;;;;8.65;1.42;;;8.10;86.60;;;;;;5008895;28;20037;-71
2021/10/22 03:47:47;;;;;;;15.40;2.35;;;8.10;85.60;;;;;;5006563;28;20041;-70
2021/10/22 03:50:13;;;;;;;11.88;1.52;;;8.20;85.90;;;;;;5009838;28;20107;-71
2021/10/22 03:52:40;;;;;;;6.38;1.20;;;8.20;85.50;;;;;;5008976;28;20494;-71
2021/10/22 03:55:06;;;;;;;7.25;1.30;;;8.20;85.60;;;;;;5007725;28;20752;-70
2021/10/22 03:57:32;;;;;;;13.85;1.95;;;8.20;85.60;;;;;;5010096;28;20041;-71
2021/10/22 03:59:58;;;;;;;10.65;1.75;;;8.20;85.50;;;;;;5012476;28;20037;-71
2021/10/22 04:02:24;;;;;;;13.57;1.70;;;8.20;85.50;;;;;;5010101;28;20032;-71
2021/10/22 04:04:49;;;;;;;6.28;1.35;;;8.00;85.50;;;;;;5011136;28;20029;-71
2021/10/22 04:07:15;;;;;;;6.63;1.20;;;7.90;86.10;;;;;;5011052;28;20037;-71
2021/10/22 04:09:41;;;;;;;7.78;1.38;;;7.80;86.80;;;;;;5010883;28;20030;-71
2021/10/22 04:12:06;;;;;;;6.20;1.17;;;7.80;87.40;;;;;;5011447;28;20045;-71
2021/10/22 04:14:32;;;;;;;3.88;1.13;;;7.80;86.50;;;;;;5013731;28;20034;-71
2021/10/22 04:16:59;;;;;;;10.00;1.45;;;7.80;87.00;;;;;;5012351;28;20030;-70
2021/10/22 04:19:25;;;;;;;6.07;1.10;;;7.80;86.80;;;;;;5011186;28;20037;-70
2021/10/22 04:21:51;;;;;;;15.38;1.50;;;7.70;87.60;;;;;;5012525;28;20030;-71
2021/10/22 04:24:18;;;;;;;7.88;1.33;;;7.70;87.40;;;;;;5009461;28;20751;-71
2021/10/22 04:26:45;;;;;;;5.63;1.75;;;7.70;87.90;;;;;;5011409;28;20145;-71
2021/10/22 04:29:12;;;;;;;13.85;1.40;;;7.70;87.70;;;;;;5009142;28;20033;-71
2021/10/22 04:31:41;;;;;;;9.00;1.95;;;7.70;87.50;;;;;;5012484;28;20065;-71
2021/10/22 04:34:08;;;;;;;6.30;1.40;;;7.70;87.80;;;;;;5012108;28;20575;-71
2021/10/22 04:36:34;;;;;;;6.68;1.20;;;7.80;87.50;;;;;;5011663;28;20557;-71
2021/10/22 04:41:44;;;;;;;11.18;1.33;;;7.90;87.00;;;;;;5025944;28;20045;-68
2021/10/22 04:44:10;;;;;;;9.68;1.75;;;7.90;87.00;;;;;;5011283;28;20030;-71
2021/10/22 04:46:38;;;;;;;7.70;1.23;;;7.90;86.50;;;;;;5020358;28;20821;-71
2021/10/22 04:49:03;;;;;;;5.25;1.17;;;7.90;86.80;;;;;;4999852;28;20430;-70
2021/10/22 04:51:29;;;;;;;9.80;1.55;;;7.80;87.20;;;;;;5008602;28;20099;-72
2021/10/22 04:53:55;;;;;;;5.45;1.27;;;7.80;87.10;;;;;;5015640;28;20107;-71
2021/10/22 04:56:20;;;;;;;6.85;1.50;;;7.70;88.00;;;;;;5018641;28;20044;-70
2021/10/22 04:58:47;;;;;;;9.52;1.55;;;7.70;87.80;;;;;;5010524;28;20034;-70
2021/10/22 05:01:14;;;;;;;10.05;1.30;;;7.70;87.90;;;;;;5025192;28;20030;-70
2021/10/22 05:03:39;;;;;;;9.18;1.77;;;7.70;88.30;;;;;;5011248;28;20095;-70
2021/10/22 05:06:05;;;;;;;5.88;1.23;;;7.70;88.20;;;;;;5018928;28;20041;-70
2021/10/22 05:08:31;;;;;;;8.63;2.03;;;7.70;87.80;;;;;;5005670;28;20052;-71
2021/10/22 05:10:57;;;;;;;5.32;1.38;;;7.70;88.20;;;;;;5022388;28;20456;-68
2021/10/22 05:13:23;;;;;;;9.32;2.25;;;7.70;88.00;;;;;;5016987;28;20569;-68
2021/10/22 05:15:49;;;;;;;12.38;1.25;;;7.70;87.70;;;;;;5015387;28;20817;-67
2021/10/22 05:18:16;;;;;;;6.85;1.33;;;7.70;88.00;;;;;;5014805;28;20036;-67
2021/10/22 05:20:41;;;;;;;6.85;1.15;;;7.70;88.00;;;;;;5009947;28;20490;-68
2021/10/22 05:23:07;;;;;;;7.63;1.50;;;7.70;87.60;;;;;;5012780;28;20122;-67
2021/10/22 05:25:33;;;;;;;8.40;1.40;;;7.70;87.60;;;;;;5015400;28;20037;-67
2021/10/22 05:27:59;;;;;;;6.78;1.40;;;7.60;87.80;;;;;;5019812;28;20505;-67
2021/10/22 05:30:26;;;;;;;5.03;1.23;;;7.60;88.00;;;;;;5012206;28;20065;-68
2021/10/22 05:32:51;;;;;;;9.88;1.38;;;7.60;87.80;;;;;;5019714;28;20102;-68
2021/10/22 05:35:17;;;;;;;10.27;1.98;;;7.60;87.40;;;;;;5012675;28;20045;-67
2021/10/22 05:37:42;;;;;;;10.30;1.60;;;7.70;87.40;;;;;;5016413;28;20053;-67
2021/10/22 05:40:08;;;;;;;5.82;1.58;;;7.70;87.40;;;;;;5017198;28;20041;-67
2021/10/22 05:42:35;;;;;;;3.67;0.95;;;7.70;87.50;;;;;;5017467;28;20041;-67
2021/10/22 05:45:01;;;;;;;6.05;1.30;;;7.70;87.00;;;;;;4999388;28;20140;-67
2021/10/22 05:47:26;;;;;;;6.03;1.30;;;7.80;87.10;;;;;;5017598;28;20044;-67
2021/10/22 05:49:52;;;;;;;7.85;1.33;;;7.70;86.60;;;;;;5016497;28;20040;-67
2021/10/22 05:52:18;;;;;;;7.40;1.58;;;7.70;86.80;;;;;;5017559;28;20045;-68
2021/10/22 05:54:44;;;;;;;4.05;1.30;;;7.70;86.80;;;;;;5014308;28;20033;-67
2021/10/22 05:57:10;;;;;;;8.98;1.20;;;7.70;86.80;;;;;;5007155;28;20022;-67
2021/10/22 05:59:35;;;;;;;4.45;1.52;;;7.80;86.40;;;;;;5018423;28;20027;-67
2021/10/22 06:02:01;;;;;;;6.43;1.00;;;8.10;87.40;;;;;;5017562;28;20103;-66
2021/10/22 06:04:27;;;;;;;5.85;1.50;;;8.50;85.70;;;;;;5009620;28;20561;-67
2021/10/22 06:06:54;;;;;;;6.05;1.50;;;9.20;83.20;;;;;;5023133;28;20065;-67
2021/10/22 06:09:20;;;;;;;11.00;1.92;;;9.70;80.80;;;;;;5013894;28;20034;-67
2021/10/22 06:11:49;;;;;;;8.90;1.85;;;10.40;77.70;;;;;;5014540;28;20041;-66
2021/10/22 06:14:15;;;;;;;12.32;2.35;;;10.70;75.90;;;;;;5014865;28;20041;-66
2021/10/22 06:16:41;;;;;;;10.25;1.52;;;10.90;73.60;;;;;;5019821;28;20033;-67
2021/10/22 06:19:11;;;;;;;6.88;1.15;;;11.10;71.00;;;;;;5019871;28;20033;-67
2021/10/22 06:24:04;;;;;;;5.88;1.25;;;10.50;72.10;;;;;;5022283;28;20112;-66
2021/10/22 06:26:36;;;;;;;5.10;0.98;;;10.00;73.30;;;;;;5008830;28;20061;-68
2021/10/22 06:29:04;;;;;;;6.38;0.73;;;9.60;75.10;;;;;;5017152;28;20034;-67
2021/10/22 06:31:30;;;;;;;9.85;1.70;;;9.40;76.00;;;;;;5027884;28;20079;-71
2021/10/22 06:33:56;;;;;;;5.57;1.58;;;9.30;76.80;;;;;;5026304;28;20025;-66
2021/10/22 06:36:23;;;;;;;5.95;1.00;;;9.20;77.20;;;;;;5016256;28;20033;-68
2021/10/22 06:38:48;;;;;;;4.15;1.30;;;9.10;78.10;;;;;;5025781;28;20086;-69
2021/10/22 06:41:14;;;;;;;7.18;1.10;;;8.90;77.40;;;;;;5015997;28;20038;-67
2021/10/22 06:43:42;;;;;;;12.60;1.52;;;8.70;78.90;;;;;;5023754;28;20040;-66
2021/10/22 06:46:09;;;;;;;9.48;1.75;;;8.60;79.60;;;;;;5013390;28;20029;-67
2021/10/22 06:48:35;;;;;;;7.72;1.23;;;8.50;79.20;;;;;;5006644;28;20041;-67
2021/10/22 06:51:02;;;;;;;7.75;1.30;;;8.50;79.80;;;;;;5021980;28;20421;-68
2021/10/22 06:53:28;;;;;;;8.73;1.23;;;8.50;79.70;;;;;;5023431;28;20460;-67
2021/10/22 06:55:54;;;;;;;7.72;1.38;;;8.50;80.20;;;;;;5012606;28;20034;-67
2021/10/22 06:58:20;;;;;;;4.03;0.98;;;8.60;80.40;;;;;;5014058;28;20037;-67
2021/10/22 07:00:49;;;;;;;5.78;1.38;;;8.70;79.30;;;;;;5009948;28;20564;-66
2021/10/22 07:03:20;;;;;;;7.72;1.42;;;8.80;78.80;;;;;;5016508;28;20056;-67
2021/10/22 07:05:51;;;;;;;8.45;1.77;;;8.90;79.00;;;;;;5009498;28;20048;-67
2021/10/22 07:08:17;;;;;;;8.82;1.23;;;8.90;78.30;;;;;;5018259;28;20117;-68
2021/10/22 07:10:43;;;;;;;6.10;1.38;;;9.00;78.20;;;;;;5019378;28;20116;-66
2021/10/22 07:13:10;;;;;;;10.77;1.90;;;8.90;78.50;;;;;;5013623;28;20036;-66
2021/10/22 07:15:35;;;;;;;6.57;1.20;;;8.80;78.70;;;;;;5011296;28;20029;-66
2021/10/22 07:18:01;;;;;;;7.82;1.25;;;8.70;78.80;;;;;;5018819;28;20461;-66
2021/10/22 07:20:28;;;;;;;7.72;1.40;;;8.70;79.10;;;;;;5015828;28;20038;-66
2021/10/22 07:23:02;;;;;;;4.28;1.17;;;8.80;79.20;;;;;;4998613;28;20064;-67
2021/10/22 07:25:27;;;;;;;7.68;1.40;;;8.90;78.30;;;;;;4999665;28;20383;-67
2021/10/22 07:27:54;;;;;;;7.05;1.67;;;9.10;78.80;;;;;;5012401;28;20096;-66
2021/10/22 07:30:19;;;;;;;5.50;1.67;;;9.10;76.80;;;;;;5009054;28;20037;-66
2021/10/22 07:32:47;;;;;;;7.75;1.80;;;9.30;77.60;;;;;;5023893;28;20044;-69
2021/10/22 07:35:16;;;;;;;6.65;1.92;;;9.40;76.10;;;;;;5020961;28;20048;-72
2021/10/22 07:37:43;;;;;;;15.18;4.22;;;9.30;76.50;;;;;;4998324;28;20030;-68
2021/10/22 07:40:09;;;;;;;18.10;7.32;;;9.40;76.10;;;;;;5022422;28;20029;-65
2021/10/22 07:42:36;;;;;;;7.63;1.90;;;9.30;76.40;;;;;;5016325;28;20033;-66
2021/10/22 07:45:05;;;;;;;5.60;2.30;;;9.30;76.60;;;;;;5013588;28;20034;-66
2021/10/22 07:47:33;;;;;;;9.82;2.20;;;9.20;77.40;;;;;;5011334;28;20040;-66
2021/10/22 07:50:00;;;;;;;5.50;1.48;;;9.00;76.60;;;;;;5013828;28;20497;-65
2021/10/22 07:52:28;;;;;;;9.73;3.13;;;9.10;77.60;;;;;;5013055;28;20038;-65
2021/10/22 07:54:55;;;;;;;11.05;3.20;;;9.10;77.60;;;;;;5010456;28;20040;-65
2021/10/22 07:57:23;;;;;;;12.43;2.28;;;9.00;77.90;;;;;;5016528;28;20493;-66
2021/10/22 07:59:49;;;;;;;16.05;2.20;;;9.00;78.60;;;;;;5011700;28;20498;-66
2021/10/22 08:02:16;;;;;;;16.85;5.70;;;9.20;77.60;;;;;;5015667;28;20197;-66
2021/10/22 08:04:44;;;;;;;30.92;8.05;;;9.20;76.70;;;;;;5010933;28;20025;-66
2021/10/22 08:07:11;;;;;;;21.85;4.72;;;9.40;76.50;;;;;;5011082;28;20025;-65
2021/10/22 08:09:38;;;;;;;11.10;2.85;;;9.20;77.10;;;;;;5013191;28;20087;-67
2021/10/22 08:12:04;;;;;;;12.65;2.75;;;9.30;77.00;;;;;;5014519;28;20052;-65
2021/10/22 08:14:30;;;;;;;10.32;2.63;;;9.40;76.40;;;;;;5014457;28;20029;-65
2021/10/22 08:16:56;;;;;;;13.98;3.28;;;9.60;76.20;;;;;;5010062;28;20083;-66
2021/10/22 08:19:21;;;;;;;8.73;1.58;;;9.60;75.40;;;;;;5014530;28;20045;-66
2021/10/22 08:24:13;;;;;;;15.25;3.53;;;9.70;74.70;;;;;;5010611;28;20037;-66
2021/10/22 08:26:39;;;;;;;11.75;1.65;;;9.70;74.00;;;;;;5015550;28;20132;-70
2021/10/22 08:29:04;;;;;;;10.40;3.88;;;9.80;74.90;;;;;;5010298;28;20701;-67
2021/10/22 08:31:30;;;;;;;8.68;3.25;;;10.00;74.10;;;;;;5015014;28;20048;-66
2021/10/22 08:33:57;;;;;;;8.13;3.35;;;10.00;73.60;;;;;;5012738;28;20026;-72
2021/10/22 08:36:22;;;;;;;10.68;3.20;;;10.00;73.00;;;;;;5012086;28;20029;-69
2021/10/22 08:38:48;;;;;;;11.75;3.30;;;10.20;72.90;;;;;;5011802;28;20089;-71
2021/10/22 08:41:16;;;;;;;9.00;2.50;;;10.50;71.70;;;;;;5010645;28;20026;-72
2021/10/22 08:43:42;;;;;;;13.38;2.85;;;10.70;70.90;;;;;;5012785;28;20045;-66
2021/10/22 08:46:13;;;;;;;11.88;3.50;;;10.70;69.30;;;;;;5010087;28;20132;-67
2021/10/22 08:48:40;;;;;;;7.55;2.17;;;10.60;70.20;;;;;;5008674;28;20448;-69
2021/10/22 08:51:06;;;;;;;8.70;2.05;;;10.60;70.60;;;;;;5011726;28;20041;-69
2021/10/22 08:53:33;;;;;;;10.32;1.60;;;11.20;69.50;;;;;;5010996;28;20194;-68
2021/10/22 08:55:59;;;;;;;8.65;2.00;;;11.60;67.90;;;;;;5010679;28;20099;-69
2021/10/22 08:58:26;;;;;;;11.02;3.33;;;12.20;66.50;;;;;;4993121;28;20107;-68
2021/10/22 09:00:52;;;;;;;6.20;1.80;;;12.80;62.80;;;;;;5013639;28;20033;-69
2021/10/22 09:03:19;;;;;;;13.10;4.22;;;12.50;62.80;;;;;;5015025;28;20618;-69
2021/10/22 09:06:03;;;;;;;9.30;2.33;;;12.10;64.00;;;;;;5009275;28;20033;-73
2021/10/22 09:08:40;;;;;;;18.08;3.63;;;11.60;66.70;;;;;;4997617;28;20033;-67
2021/10/22 09:11:18;;;;;;;19.80;4.60;;;11.20;68.20;;;;;;5013598;28;20840;-66
2021/10/22 09:14:01;;;;;;;10.65;2.20;;;11.20;68.60;;;;;;5011631;28;20042;-65
2021/10/22 09:16:27;;;;;;;11.65;2.92;;;11.20;69.30;;;;;;4999972;28;20033;-65
2021/10/22 09:18:54;;;;;;;11.38;2.88;;;11.30;68.20;;;;;;5009294;28;20026;-65
2021/10/22 09:21:31;;;;;;;18.02;3.47;;;12.10;66.40;;;;;;5013022;28;20041;-65
2021/10/22 09:24:15;;;;;;;12.85;2.80;;;13.30;61.80;;;;;;5014241;28;20163;-67
2021/10/22 09:26:48;;;;;;;9.27;2.67;;;13.50;60.00;;;;;;4992450;28;20128;-66
2021/10/22 09:29:19;;;;;;;15.60;3.22;;;13.70;59.90;;;;;;5011896;28;20087;-66
2021/10/22 09:31:47;;;;;;;8.23;1.65;;;13.40;60.70;;;;;;5010582;28;20792;-68
2021/10/22 09:34:31;;;;;;;13.20;2.10;;;12.90;61.80;;;;;;5018528;28;20276;-67
2021/10/22 09:37:01;;;;;;;8.60;2.35;;;13.10;63.00;;;;;;5020426;28;20042;-67
2021/10/22 09:39:33;;;;;;;10.05;2.75;;;13.10;62.80;;;;;;5014139;28;20040;-67
2021/10/22 09:42:00;;;;;;;12.57;2.85;;;12.80;62.50;;;;;;5019109;28;20040;-67
2021/10/22 09:44:38;;;;;;;12.05;2.20;;;12.50;63.80;;;;;;5021009;28;20127;-67
2021/10/22 09:47:04;;;;;;;7.55;2.85;;;12.00;65.30;;;;;;5018014;28;20061;-67
2021/10/22 09:49:31;;;;;;;10.82;2.30;;;11.50;67.40;;;;;;5013924;28;20132;-67
2021/10/22 09:51:56;;;;;;;12.35;3.05;;;11.40;68.40;;;;;;5002030;28;20026;-67
2021/10/22 09:54:30;;;;;;;10.25;2.50;;;11.30;67.50;;;;;;4983175;28;20835;-67
2021/10/22 09:56:57;;;;;;;6.38;1.42;;;11.20;68.60;;;;;;5008704;28;20032;-67
2021/10/22 09:59:27;;;;;;;11.73;3.17;;;11.10;69.40;;;;;;5019604;28;20720;-67
2021/10/22 10:01:55;;;;;;;5.85;2.17;;;11.10;69.10;;;;;;5021254;28;20071;-68
2021/10/22 10:04:26;;;;;;;10.52;3.08;;;11.10;70.00;;;;;;5003838;28;20080;-67
2021/10/22 10:06:56;;;;;;;11.75;2.20;;;11.10;69.90;;;;;;5026743;28;20539;-67
2021/10/22 10:09:23;;;;;;;8.65;2.33;;;11.20;71.00;;;;;;5017476;28;20116;-67
2021/10/22 10:11:49;;;;;;;8.35;2.42;;;11.20;70.90;;;;;;5017927;28;20033;-67
2021/10/22 10:14:17;;;;;;;8.30;2.03;;;11.20;70.50;;;;;;5018283;28;20132;-68
2021/10/22 10:16:47;;;;;;;8.82;2.35;;;10.90;70.20;;;;;;5024596;28;20033;-67
2021/10/22 10:19:29;;;;;;;12.05;2.70;;;10.80;70.90;;;;;;5016299;28;20033;-68
2021/10/22 10:22:03;;;;;;;13.63;5.32;;;10.40;72.20;;;;;;5007677;28;20106;-68
2021/10/22 10:24:32;;;;;;;13.43;4.50;;;10.30;73.00;;;;;;5024877;28;20040;-66
2021/10/22 10:27:06;;;;;;;9.93;3.10;;;10.20;73.20;;;;;;5013569;28;20037;-67
2021/10/22 10:29:36;;;;;;;12.00;4.85;;;10.10;74.30;;;;;;5024280;28;20033;-67
2021/10/22 10:32:10;;;;;;;12.73;6.03;;;10.20;73.70;;;;;;5028530;28;20036;-67
2021/10/22 10:34:47;;;;;;;16.58;8.52;;;10.30;72.80;;;;;;5021249;28;20038;-67
2021/10/22 10:37:25;;;;;;;9.50;3.33;;;10.40;72.60;;;;;;5026634;28;20532;-67
2021/10/22 10:40:00;;;;;;;18.10;7.72;;;10.30;73.20;;;;;;5028529;28;20021;-66
2021/10/22 10:42:30;;;;;;;14.43;5.90;;;10.30;72.50;;;;;;5021267;28;20041;-66
2021/10/22 10:45:03;;;;;;;7.82;4.13;;;10.40;72.60;;;;;;5016446;28;20049;-67
2021/10/22 10:47:33;;;;;;;9.95;2.80;;;10.30;73.20;;;;;;5016818;28;20052;-67
2021/10/22 10:50:04;;;;;;;14.80;2.78;;;10.30;72.70;;;;;;5010276;28;20496;-67
2021/10/22 10:52:42;;;;;;;9.77;2.28;;;10.40;73.20;;;;;;5022415;28;20230;-67
2021/10/22 10:55:43;;;;;;;10.05;2.00;;;10.40;72.70;;;;;;5018157;28;20087;-67
2021/10/22 10:58:08;;;;;;;6.70;1.85;;;10.40;72.30;;;;;;5012999;28;20041;-67
2021/10/22 11:00:45;;;;;;;3.88;1.27;;;10.60;72.00;;;;;;5018041;28;20030;-67
2021/10/22 11:03:21;;;;;;;8.98;2.00;;;10.60;71.40;;;;;;5028574;28;20103;-67
2021/10/22 11:05:52;;;;;;;8.05;1.67;;;10.70;71.10;;;;;;5029485;28;20052;-67
2021/10/22 11:08:33;;;;;;;5.70;1.63;;;10.80;71.00;;;;;;5029882;28;20801;-67
2021/10/22 11:13:43;;;;;;;7.68;1.65;;;11.00;69.30;;;;;;5025115;28;20044;-67
2021/10/22 11:16:25;;;;;;;11.10;1.73;;;11.00;69.70;;;;;;5022352;28;20036;-67
2021/10/22 11:18:57;;;;;;;7.50;1.77;;;11.20;69.10;;;;;;5023924;28;20038;-66
2021/10/22 11:21:28;;;;;;;2.33;1.20;;;11.50;68.40;;;;;;5028156;28;20045;-69
2021/10/22 11:24:00;;;;;;;6.90;1.48;;;11.60;68.00;;;;;;5025907;28;20033;-71
2021/10/22 11:26:26;;;;;;;6.63;2.08;;;11.70;66.90;;;;;;5019677;28;20382;-66
2021/10/22 11:28:54;;;;;;;6.45;1.60;;;11.90;66.80;;;;;;5024553;28;20044;-67
2021/10/22 11:31:40;;;;;;;6.25;1.50;;;11.90;66.50;;;;;;5030538;28;20044;-66
2021/10/22 11:34:13;;;;;;;2.57;1.00;;;12.00;66.60;;;;;;5025657;28;20102;-67
2021/10/22 11:36:48;;;;;;;6.13;1.23;;;12.20;64.80;;;;;;5025434;28;20585;-67
2021/10/22 11:39:24;;;;;;;7.80;2.10;;;12.40;65.00;;;;;;5016935;28;20110;-67
2021/10/22 11:42:10;;;;;;;5.35;1.80;;;12.60;64.10;;;;;;5023734;28;20489;-66
2021/10/22 11:44:38;;;;;;;4.60;1.30;;;12.20;63.70;;;;;;5028021;28;20045;-66
2021/10/22 11:47:04;;;;;;;7.32;2.90;;;11.80;65.20;;;;;;5026118;28;20052;-66
2021/10/22 11:49:32;;;;;;;9.63;3.80;;;11.80;65.50;;;;;;5028344;28;20037;-66
2021/10/22 11:52:00;;;;;;;6.07;1.65;;;11.70;66.80;;;;;;5030127;28;20057;-66
2021/10/22 11:54:36;;;;;;;4.30;1.77;;;11.90;66.30;;;;;;5023984;28;20034;-66
2021/10/22 11:57:04;;;;;;;4.90;1.35;;;12.10;65.50;;;;;;5032636;28;20037;-66
2021/10/22 11:59:31;;;;;;;7.60;1.42;;;12.10;64.90;;;;;;5029635;28;20037;-66
2021/10/22 12:02:07;;;;;;;9.38;1.83;;;12.30;65.70;;;;;;5023552;28;20870;-67
2021/10/22 12:04:34;;;;;;;9.43;1.42;;;12.20;64.20;;;;;;5022180;28;20026;-67
2021/10/22 12:07:08;;;;;;;6.18;1.50;;;12.30;64.20;;;;;;5019116;28;20034;-67
2021/10/22 12:09:43;;;;;;;4.72;1.40;;;12.00;65.10;;;;;;5026151;28;20045;-68
2021/10/22 12:12:16;;;;;;;6.75;1.90;;;11.80;66.20;;;;;;5027374;28;20046;-67
2021/10/22 12:14:44;;;;;;;6.40;2.55;;;11.50;66.40;;;;;;5025926;28;20034;-67
2021/10/22 12:17:19;;;;;;;6.45;1.63;;;11.60;67.60;;;;;;5012458;28;20954;-67
2021/10/22 12:19:46;;;;;;;9.80;2.20;;;11.60;67.00;;;;;;5034996;28;20041;-67
2021/10/22 12:22:14;;;;;;;7.20;1.23;;;11.60;67.20;;;;;;5015594;28;20037;-66
2021/10/22 12:24:52;;;;;;;3.35;0.90;;;11.60;67.70;;;;;;5018425;28;20068;-69
2021/10/22 12:27:18;;;;;;;6.40;1.15;;;11.50;67.70;;;;;;5019874;28;20041;-69
2021/10/22 12:29:58;;;;;;;2.65;1.23;;;11.60;68.20;;;;;;5013686;28;20033;-67
2021/10/22 12:32:33;;;;;;;3.03;1.45;;;11.60;67.90;;;;;;5015855;28;20037;-67
2021/10/22 12:35:03;;;;;;;5.55;1.02;;;11.60;67.60;;;;;;5015795;28;20042;-68
2021/10/22 12:37:35;;;;;;;5.13;1.23;;;11.70;68.30;;;;;;5019209;28;20030;-68
2021/10/22 12:40:11;;;;;;;9.13;1.90;;;11.70;67.30;;;;;;5034668;28;20045;-68
2021/10/22 12:42:38;;;;;;;4.35;1.60;;;11.70;68.40;;;;;;5008251;28;20034;-68
2021/10/22 12:45:20;;;;;;;8.02;1.95;;;11.70;68.30;;;;;;5018927;28;20112;-69
2021/10/22 12:47:49;;;;;;;9.18;1.80;;;11.60;68.10;;;;;;5025550;28;20029;-69
2021/10/22 12:50:23;;;;;;;3.97;1.40;;;11.60;68.10;;;;;;5029497;28;20064;-67
2021/10/22 12:53:00;;;;;;;7.13;1.92;;;11.70;68.90;;;;;;5028307;28;20059;-67
2021/10/22 12:55:27;;;;;;;7.43;1.58;;;11.80;67.40;;;;;;5006520;28;20033;-67
2021/10/22 12:58:22;;;;;;;6.55;2.40;;;11.90;68.00;;;;;;5007264;28;20859;-67
2021/10/22 13:01:14;;;;;;;9.75;1.90;;;11.80;67.30;;;;;;5028256;28;20490;-67
2021/10/22 13:03:50;;;;;;;4.85;1.85;;;11.70;68.10;;;;;;5021084;28;20815;-67
2021/10/22 13:09:03;;;;;;;4.05;1.30;;;11.80;67.80;;;;;;5027191;28;20713;-68